Time;durP1;ratioP1;P1;durP2;ratioP2;P2;SDS_P1;SDS_P2;PMS_P1;PMS_P2;Temp;Humidity;BMP_temperature;BMP_pressure;BME280_temperature;BME280_humidity;BME280_pressure;Samples;Min_cycle;Max_cycle;Signal;HPM_P1;HPM_P2
2022/04/21 00:00:14;;;;;;;10.20;9.20;;;;;;;;;;4996816;28;93432;-74
2022/04/21 00:02:41;;;;;;;10.45;9.07;;;;;;;;;;4997041;28;93026;-75
2022/04/21 00:05:08;;;;;;;10.70;9.70;;;;;;;;;;5000275;28;92517;-76
2022/04/21 00:07:35;;;;;;;12.63;9.90;;;;;;;;;;4996846;28;93506;-76
2022/04/21 00:10:02;;;;;;;11.32;10.10;;;;;;;;;;4979774;28;91646;-75
2022/04/21 00:12:28;;;;;;;14.35;9.65;;;;;;;;;;4996230;28;92871;-74
2022/04/21 00:14:55;;;;;;;14.90;9.75;;;;;;;;;;4996199;28;93678;-76
2022/04/21 00:17:21;;;;;;;14.43;9.82;;;;;;;;;;4996970;28;94773;-75
2022/04/21 00:19:47;;;;;;;12.15;10.15;;;;;;;;;;5000252;28;95746;-75
2022/04/21 00:24:59;;;;;;;14.30;9.73;;;;;;;;;;4999411;28;92281;-75
2022/04/21 00:27:27;;;;;;;12.05;9.80;;;;;;;;;;5002479;28;95244;-75
2022/04/21 00:29:53;;;;;;;10.60;9.40;;;;;;;;;;5000147;28;93051;-75
2022/04/21 00:32:20;;;;;;;10.82;9.70;;;;;;;;;;5000106;28;93224;-74
2022/04/21 00:34:46;;;;;;;13.38;10.00;;;;;;;;;;5000392;28;93862;-76
2022/04/21 00:37:12;;;;;;;12.82;10.07;;;;;;;;;;4999612;28;92166;-75
2022/04/21 00:39:39;;;;;;;12.18;9.75;;;;;;;;;;4999253;28;93447;-76
2022/04/21 00:42:05;;;;;;;12.13;9.30;;;;;;;;;;4998154;28;96523;-76
2022/04/21 00:44:33;;;;;;;11.02;10.00;;;;;;;;;;5000307;28;92449;-74
2022/04/21 00:47:03;;;;;;;13.68;10.20;;;;;;;;;;4999768;28;92764;-76
2022/04/21 00:49:30;;;;;;;13.93;10.43;;;;;;;;;;5003393;28;93705;-75
2022/04/21 00:51:58;;;;;;;15.20;10.25;;;;;;;;;;4998741;28;93526;-75
2022/04/21 00:54:24;;;;;;;12.45;10.50;;;;;;;;;;4998559;28;93199;-74
2022/04/21 00:56:51;;;;;;;13.23;9.85;;;;;;;;;;4999140;28;92643;-75
2022/04/21 00:59:17;;;;;;;13.85;11.00;;;;;;;;;;5000429;28;93889;-75
2022/04/21 01:04:29;;;;;;;12.57;10.60;;;;;;;;;;4999970;28;92366;-75
2022/04/21 01:06:55;;;;;;;11.13;9.80;;;;;;;;;;4990316;28;94929;-75
2022/04/21 01:09:22;;;;;;;11.38;10.13;;;;;;;;;;4999567;28;94013;-75
2022/04/21 01:11:50;;;;;;;12.52;9.80;;;;;;;;;;5002168;28;92166;-75
2022/04/21 01:14:16;;;;;;;10.43;9.50;;;;;;;;;;4999413;28;93285;-76
2022/04/21 01:16:43;;;;;;;11.90;9.85;;;;;;;;;;4999607;28;92255;-74
2022/04/21 01:19:10;;;;;;;13.52;9.90;;;;;;;;;;4999664;28;92710;-74
2022/04/21 01:21:37;;;;;;;11.43;10.18;;;;;;;;;;4999193;28;92872;-75
2022/04/21 01:24:04;;;;;;;14.30;9.98;;;;;;;;;;4999111;28;91468;-76
2022/04/21 01:26:34;;;;;;;12.57;10.55;;;;;;;;;;4998487;28;92717;-75
2022/04/21 01:29:07;;;;;;;12.15;9.27;;;;;;;;;;4997439;28;94198;-75
2022/04/21 01:31:33;;;;;;;12.75;10.07;;;;;;;;;;5005812;28;94527;-76
2022/04/21 01:33:59;;;;;;;10.70;9.55;;;;;;;;;;5001119;28;93558;-74
2022/04/21 01:36:26;;;;;;;14.85;10.27;;;;;;;;;;4999323;28;92369;-76
2022/04/21 01:41:37;;;;;;;11.40;9.65;;;;;;;;;;4998705;28;94516;-75
2022/04/21 01:44:03;;;;;;;11.15;10.00;;;;;;;;;;4999094;28;92384;-76
2022/04/21 01:46:31;;;;;;;11.20;9.65;;;;;;;;;;4997806;28;93273;-76
2022/04/21 01:48:57;;;;;;;11.50;10.27;;;;;;;;;;4999629;28;92860;-75
2022/04/21 01:51:24;;;;;;;17.17;10.45;;;;;;;;;;4998438;28;92299;-76
2022/04/21 01:53:50;;;;;;;11.93;10.00;;;;;;;;;;5001161;28;92794;-75
2022/04/21 01:56:16;;;;;;;13.40;10.00;;;;;;;;;;4995395;28;94774;-74
2022/04/21 01:58:44;;;;;;;11.05;9.80;;;;;;;;;;4998160;28;96048;-75
2022/04/21 02:01:11;;;;;;;11.90;9.45;;;;;;;;;;4980860;28;93985;-75
2022/04/21 02:03:37;;;;;;;12.68;9.52;;;;;;;;;;4998943;28;92378;-75
2022/04/21 02:06:03;;;;;;;10.75;9.65;;;;;;;;;;4981046;28;94931;-75
2022/04/21 02:08:31;;;;;;;11.52;9.93;;;;;;;;;;4997193;28;95568;-75
2022/04/21 02:10:58;;;;;;;11.98;10.13;;;;;;;;;;4998551;28;92282;-75
2022/04/21 02:13:24;;;;;;;13.50;9.93;;;;;;;;;;4993098;28;91747;-75
2022/04/21 02:15:50;;;;;;;12.32;9.85;;;;;;;;;;5001406;28;93054;-74
2022/04/21 02:18:17;;;;;;;12.82;10.63;;;;;;;;;;4998915;28;93659;-76
2022/04/21 02:20:43;;;;;;;13.77;10.55;;;;;;;;;;4996086;28;96092;-76
2022/04/21 02:23:09;;;;;;;13.27;10.30;;;;;;;;;;4997784;28;92314;-76
2022/04/21 02:25:36;;;;;;;15.32;10.82;;;;;;;;;;4997110;28;93474;-75
2022/04/21 02:28:02;;;;;;;12.23;10.20;;;;;;;;;;4997289;28;93395;-76
2022/04/21 02:30:29;;;;;;;12.43;10.68;;;;;;;;;;4996994;28;92607;-77
2022/04/21 02:32:55;;;;;;;11.90;10.73;;;;;;;;;;4997987;28;92925;-74
2022/04/21 02:35:22;;;;;;;11.43;10.15;;;;;;;;;;4995348;28;93583;-75
2022/04/21 02:37:48;;;;;;;13.77;10.70;;;;;;;;;;4999090;28;91656;-76
2022/04/21 02:40:15;;;;;;;15.82;10.13;;;;;;;;;;4996930;28;92880;-76
2022/04/21 02:42:41;;;;;;;13.70;11.48;;;;;;;;;;4997644;28;92266;-75
2022/04/21 02:45:08;;;;;;;11.45;10.25;;;;;;;;;;4995957;28;94640;-75
2022/04/21 02:47:38;;;;;;;17.33;10.77;;;;;;;;;;4997228;28;93014;-75
2022/04/21 02:50:05;;;;;;;12.15;10.30;;;;;;;;;;4994981;28;92428;-76
2022/04/21 02:52:39;;;;;;;12.98;10.60;;;;;;;;;;4996739;28;93570;-75
2022/04/21 02:57:50;;;;;;;16.20;10.32;;;;;;;;;;4957757;28;92280;-75
2022/04/21 03:00:17;;;;;;;14.23;10.88;;;;;;;;;;4960759;28;92948;-75
2022/04/21 03:02:43;;;;;;;12.65;10.77;;;;;;;;;;4956969;28;91646;-75
2022/04/21 03:05:11;;;;;;;13.02;11.10;;;;;;;;;;4957861;28;92314;-77
2022/04/21 03:07:38;;;;;;;15.00;10.52;;;;;;;;;;4957624;28;93663;-75
2022/04/21 03:10:05;;;;;;;17.38;11.05;;;;;;;;;;4956220;28;94781;-75
2022/04/21 03:12:31;;;;;;;13.38;10.75;;;;;;;;;;4957579;28;95845;-77
2022/04/21 03:14:58;;;;;;;14.77;10.60;;;;;;;;;;4957514;28;93614;-75
2022/04/21 03:17:24;;;;;;;15.25;10.65;;;;;;;;;;4956747;28;92324;-75
2022/04/21 03:19:51;;;;;;;12.02;10.68;;;;;;;;;;4957589;28;94046;-76
2022/04/21 03:25:03;;;;;;;13.10;10.27;;;;;;;;;;4957502;28;93771;-75
2022/04/21 03:27:31;;;;;;;14.05;10.20;;;;;;;;;;4957463;28;94008;-75
2022/04/21 03:29:58;;;;;;;12.95;11.18;;;;;;;;;;4957066;28;92333;-75
2022/04/21 03:32:26;;;;;;;13.55;10.20;;;;;;;;;;4957385;28;93826;-75
2022/04/21 03:34:56;;;;;;;11.85;10.38;;;;;;;;;;4955576;28;95194;-76
2022/04/21 03:37:23;;;;;;;16.08;10.55;;;;;;;;;;4957322;28;92195;-76
2022/04/21 03:39:49;;;;;;;14.70;10.07;;;;;;;;;;4957264;28;93292;-74
2022/04/21 03:42:17;;;;;;;12.55;10.55;;;;;;;;;;4962105;28;93506;-75
2022/04/21 03:44:43;;;;;;;14.30;10.80;;;;;;;;;;4967374;28;92696;-77
2022/04/21 03:47:10;;;;;;;19.08;11.02;;;;;;;;;;4957700;28;92966;-76
2022/04/21 03:49:36;;;;;;;11.60;9.82;;;;;;;;;;4957293;28;92248;-75
2022/04/21 03:52:03;;;;;;;13.40;10.57;;;;;;;;;;4957439;28;93282;-75
2022/04/21 03:54:29;;;;;;;12.98;10.57;;;;;;;;;;4973653;28;95052;-75
2022/04/21 03:56:56;;;;;;;15.38;11.32;;;;;;;;;;4995186;28;92394;-75
2022/04/21 03:59:23;;;;;;;16.55;10.63;;;;;;;;;;4994244;28;95248;-75
2022/04/21 04:01:51;;;;;;;13.30;11.02;;;;;;;;;;4996208;28;93494;-76
2022/04/21 04:04:18;;;;;;;13.88;10.88;;;;;;;;;;4999096;28;92358;-74
2022/04/21 04:12:15;;;;;;;12.68;10.50;;;;;;;;;;4995059;28;94946;-75
2022/04/21 04:14:41;;;;;;;12.20;10.82;;;;;;;;;;4944312;28;93545;-76
2022/04/21 04:17:08;;;;;;;14.25;10.90;;;;;;;;;;5012157;28;91579;-75
2022/04/21 04:19:35;;;;;;;13.68;10.35;;;;;;;;;;4996407;28;92235;-75
2022/04/21 04:22:02;;;;;;;24.38;11.07;;;;;;;;;;4994873;28;94767;-75
2022/04/21 04:24:28;;;;;;;16.08;10.57;;;;;;;;;;4994559;28;94632;-75
2022/04/21 04:26:55;;;;;;;15.73;10.13;;;;;;;;;;4998830;28;96374;-74
2022/04/21 04:29:22;;;;;;;15.68;10.30;;;;;;;;;;4996131;28;92139;-75
2022/04/21 04:31:52;;;;;;;28.48;10.70;;;;;;;;;;4995202;28;93988;-76
2022/04/21 04:34:19;;;;;;;32.10;10.93;;;;;;;;;;4995759;28;93447;-75
2022/04/21 04:36:46;;;;;;;39.45;11.60;;;;;;;;;;4995899;28;94119;-77
2022/04/21 04:39:13;;;;;;;34.67;10.93;;;;;;;;;;4995961;28;92951;-74
2022/04/21 04:44:24;;;;;;;29.23;11.27;;;;;;;;;;4994645;28;93002;-76
2022/04/21 04:46:50;;;;;;;38.22;11.80;;;;;;;;;;4994687;28;96412;-75
2022/04/21 04:49:17;;;;;;;28.10;12.20;;;;;;;;;;4997142;28;96093;-74
2022/04/21 04:51:43;;;;;;;26.80;11.57;;;;;;;;;;4995280;28;96178;-75
2022/04/21 04:54:10;;;;;;;27.75;12.43;;;;;;;;;;4995206;28;94614;-76
2022/04/21 04:56:37;;;;;;;28.95;11.75;;;;;;;;;;4995343;28;93959;-76
2022/04/21 04:59:04;;;;;;;26.42;11.30;;;;;;;;;;4995653;28;93450;-76
2022/04/21 05:01:34;;;;;;;22.92;11.15;;;;;;;;;;4995536;28;93544;-76
2022/04/21 05:04:01;;;;;;;27.88;11.15;;;;;;;;;;4996404;28;92291;-74
2022/04/21 05:06:28;;;;;;;18.45;11.20;;;;;;;;;;4999653;28;93376;-75
2022/04/21 05:08:57;;;;;;;28.13;11.07;;;;;;;;;;4947820;28;93033;-76
2022/04/21 05:11:23;;;;;;;25.98;10.95;;;;;;;;;;5001924;28;92284;-75
2022/04/21 05:13:49;;;;;;;18.67;11.63;;;;;;;;;;4997036;28;96366;-75
2022/04/21 05:16:16;;;;;;;30.13;11.60;;;;;;;;;;4998860;28;92428;-75
2022/04/21 05:18:42;;;;;;;27.17;12.23;;;;;;;;;;4998899;28;93228;-75
2022/04/21 05:21:09;;;;;;;20.05;10.52;;;;;;;;;;4998796;28;93930;-76
2022/04/21 05:23:36;;;;;;;27.27;11.48;;;;;;;;;;4998759;28;92198;-75
2022/04/21 05:26:02;;;;;;;15.95;10.65;;;;;;;;;;4980492;28;94922;-75
2022/04/21 05:28:30;;;;;;;16.17;9.52;;;;;;;;;;4998405;28;93941;-75
2022/04/21 05:31:01;;;;;;;19.38;10.23;;;;;;;;;;4999933;28;92180;-76
2022/04/21 05:33:28;;;;;;;18.63;10.43;;;;;;;;;;4983834;28;93674;-76
2022/04/21 05:35:56;;;;;;;27.30;9.57;;;;;;;;;;4998700;28;92247;-77
2022/04/21 05:38:23;;;;;;;16.70;8.77;;;;;;;;;;4997285;28;94764;-77
2022/04/21 05:40:50;;;;;;;20.05;8.57;;;;;;;;;;4981199;28;93137;-76
2022/04/21 05:43:20;;;;;;;10.65;8.35;;;;;;;;;;4999304;28;92308;-75
2022/04/21 05:45:47;;;;;;;9.77;8.60;;;;;;;;;;4999174;28;93717;-75
2022/04/21 05:48:14;;;;;;;16.40;8.32;;;;;;;;;;4999043;28;93612;-74
2022/04/21 05:50:42;;;;;;;12.57;7.68;;;;;;;;;;4999105;28;92292;-74
2022/04/21 05:53:10;;;;;;;17.70;8.52;;;;;;;;;;5003007;28;93498;-75
2022/04/21 05:55:36;;;;;;;20.17;8.70;;;;;;;;;;5002704;28;91455;-75
2022/04/21 05:58:03;;;;;;;10.70;7.90;;;;;;;;;;4998963;28;92679;-76
2022/04/21 06:00:29;;;;;;;11.40;8.02;;;;;;;;;;4998802;28;93560;-75
2022/04/21 06:02:55;;;;;;;13.52;8.00;;;;;;;;;;4997595;28;94594;-74
2022/04/21 06:05:22;;;;;;;18.48;7.78;;;;;;;;;;4998793;28;95423;-76
2022/04/21 06:07:48;;;;;;;9.10;7.32;;;;;;;;;;4998579;28;92893;-78
2022/04/21 06:10:15;;;;;;;10.95;7.25;;;;;;;;;;4998949;28;92278;-74
2022/04/21 06:12:42;;;;;;;8.00;6.90;;;;;;;;;;4997717;28;93763;-76
2022/04/21 06:15:09;;;;;;;8.10;7.30;;;;;;;;;;4983395;28;93603;-76
2022/04/21 06:17:35;;;;;;;10.43;7.25;;;;;;;;;;4995878;28;93486;-73
2022/04/21 06:20:01;;;;;;;9.80;7.32;;;;;;;;;;4998614;28;92927;-73
2022/04/21 06:22:28;;;;;;;11.50;7.15;;;;;;;;;;4998523;28;92284;-75
2022/04/21 06:24:54;;;;;;;15.82;7.07;;;;;;;;;;4998481;28;93749;-70
2022/04/21 06:27:20;;;;;;;17.67;7.45;;;;;;;;;;4998314;28;96922;-72
2022/04/21 06:29:47;;;;;;;7.32;6.72;;;;;;;;;;5006321;28;92451;-71
2022/04/21 06:32:13;;;;;;;9.07;6.35;;;;;;;;;;5008272;28;92879;-75
2022/04/21 06:34:40;;;;;;;8.18;6.82;;;;;;;;;;5003975;28;94069;-80
2022/04/21 06:37:06;;;;;;;10.00;7.00;;;;;;;;;;5008387;28;92279;-71
2022/04/21 06:39:33;;;;;;;9.90;6.20;;;;;;;;;;5008547;28;92218;-75
2022/04/21 06:42:00;;;;;;;9.48;6.70;;;;;;;;;;5006222;28;92402;-75
2022/04/21 06:49:57;;;;;;;7.63;6.43;;;;;;;;;;5005804;28;92460;-77
2022/04/21 06:52:23;;;;;;;6.97;6.22;;;;;;;;;;5006946;28;94780;-74
2022/04/21 06:54:50;;;;;;;7.70;6.65;;;;;;;;;;5006265;28;94024;-79
2022/04/21 06:57:17;;;;;;;8.27;6.80;;;;;;;;;;5008008;28;92200;-77
2022/04/21 06:59:43;;;;;;;7.78;6.75;;;;;;;;;;5009529;28;92473;-77
2022/04/21 07:02:10;;;;;;;10.27;6.88;;;;;;;;;;5007430;28;92328;-79
2022/04/21 07:04:40;;;;;;;8.00;6.65;;;;;;;;;;5009931;28;92659;-76
2022/04/21 07:07:06;;;;;;;8.80;6.53;;;;;;;;;;5003053;28;94710;-77
2022/04/21 07:09:33;;;;;;;6.90;6.28;;;;;;;;;;5005769;28;91651;-76
2022/04/21 07:12:00;;;;;;;7.72;6.93;;;;;;;;;;5008459;28;93346;-76
2022/04/21 07:14:26;;;;;;;6.88;6.35;;;;;;;;;;5006132;28;93280;-77
2022/04/21 07:16:55;;;;;;;7.18;6.32;;;;;;;;;;4989389;28;94782;-77
2022/04/21 07:19:22;;;;;;;6.65;6.05;;;;;;;;;;5007634;28;95138;-75
2022/04/21 07:21:48;;;;;;;8.45;6.55;;;;;;;;;;5009330;28;93177;-78
2022/04/21 07:24:14;;;;;;;7.28;5.88;;;;;;;;;;5008406;28;93774;-76
2022/04/21 07:26:41;;;;;;;7.75;6.35;;;;;;;;;;5004120;28;94894;-76
2022/04/21 07:29:07;;;;;;;7.63;6.18;;;;;;;;;;5008087;28;92395;-76
2022/04/21 07:31:35;;;;;;;7.68;6.63;;;;;;;;;;5005824;28;93286;-77
2022/04/21 07:34:01;;;;;;;6.80;6.20;;;;;;;;;;5006807;28;91639;-77
2022/04/21 07:36:28;;;;;;;7.10;6.40;;;;;;;;;;5006804;28;92399;-77
2022/04/21 07:38:54;;;;;;;6.75;6.13;;;;;;;;;;5007342;28;93365;-76
2022/04/21 07:41:21;;;;;;;8.90;6.60;;;;;;;;;;4985951;28;95445;-76
2022/04/21 07:43:48;;;;;;;6.68;5.78;;;;;;;;;;5010937;28;92310;-76
2022/04/21 07:46:14;;;;;;;7.20;6.60;;;;;;;;;;4983221;28;94066;-76
2022/04/21 07:51:26;;;;;;;8.10;7.28;;;;;;;;;;5004811;28;93408;-77
2022/04/21 07:53:52;;;;;;;7.90;6.22;;;;;;;;;;5004416;28;93726;-78
2022/04/21 07:56:19;;;;;;;7.28;6.63;;;;;;;;;;5004068;28;92744;-76
2022/04/21 07:58:47;;;;;;;10.98;6.18;;;;;;;;;;5007979;28;94656;-77
2022/04/21 08:01:13;;;;;;;7.35;6.57;;;;;;;;;;5005871;28;93956;-76
2022/04/21 08:03:43;;;;;;;8.98;6.32;;;;;;;;;;5008272;28;92357;-77
2022/04/21 08:06:11;;;;;;;6.82;6.13;;;;;;;;;;5008264;28;95927;-75
2022/04/21 08:08:40;;;;;;;8.25;5.93;;;;;;;;;;4994089;28;92438;-78
2022/04/21 08:11:07;;;;;;;5.93;5.30;;;;;;;;;;5008318;28;93626;-77
2022/04/21 08:13:34;;;;;;;4.88;4.55;;;;;;;;;;5008763;28;93622;-77
2022/04/21 08:16:00;;;;;;;5.35;4.85;;;;;;;;;;5004389;28;92306;-78
2022/04/21 08:18:26;;;;;;;5.15;4.65;;;;;;;;;;5014819;28;92341;-78
2022/04/21 08:20:57;;;;;;;7.20;4.90;;;;;;;;;;5005099;28;94399;-77
2022/04/21 08:23:41;;;;;;;5.30;4.10;;;;;;;;;;5003597;28;91626;-76
2022/04/21 08:34:38;;;;;;;3.65;3.35;;;;;;;;;;5001243;28;94049;-78
2022/04/21 08:37:05;;;;;;;5.63;3.40;;;;;;;;;;5008178;28;92231;-78
2022/04/21 08:39:31;;;;;;;3.75;3.17;;;;;;;;;;5004809;28;93690;-78
2022/04/21 08:42:02;;;;;;;5.22;3.35;;;;;;;;;;5009588;28;93327;-78
2022/04/21 08:44:34;;;;;;;3.45;3.10;;;;;;;;;;5008975;28;92279;-80
2022/04/21 08:47:09;;;;;;;4.97;3.60;;;;;;;;;;5003520;28;92354;-78
2022/04/21 08:49:37;;;;;;;6.22;3.60;;;;;;;;;;5010313;28;92392;-73
2022/04/21 08:52:04;;;;;;;4.85;3.47;;;;;;;;;;5008178;28;93630;-78
2022/04/21 08:54:31;;;;;;;4.93;3.45;;;;;;;;;;5008999;28;93146;-75
2022/04/21 08:56:58;;;;;;;4.10;3.20;;;;;;;;;;5005707;28;94701;-69
2022/04/21 08:59:24;;;;;;;5.68;3.83;;;;;;;;;;5009679;28;96035;-73
2022/04/21 09:01:50;;;;;;;7.72;3.33;;;;;;;;;;5007939;28;93389;-73
2022/04/21 09:04:17;;;;;;;3.65;3.30;;;;;;;;;;5010804;28;93040;-76
2022/04/21 09:06:43;;;;;;;7.68;3.53;;;;;;;;;;4988184;28;93319;-77
2022/04/21 09:09:17;;;;;;;6.30;3.30;;;;;;;;;;4983736;28;93491;-80
2022/04/21 09:11:44;;;;;;;8.38;3.13;;;;;;;;;;4992990;28;92805;-77
2022/04/21 09:14:15;;;;;;;4.95;3.25;;;;;;;;;;5010211;28;93365;-77
2022/04/21 09:16:42;;;;;;;6.37;3.40;;;;;;;;;;5003187;28;92476;-76
2022/04/21 09:19:10;;;;;;;5.40;3.30;;;;;;;;;;5009596;28;93303;-77
2022/04/21 09:21:37;;;;;;;6.05;3.20;;;;;;;;;;5006287;28;96092;-79
2022/04/21 09:24:23;;;;;;;6.35;3.40;;;;;;;;;;5008414;28;92627;-79
2022/04/21 09:26:50;;;;;;;3.72;3.22;;;;;;;;;;5003146;28;92744;-77
2022/04/21 09:29:24;;;;;;;8.88;3.20;;;;;;;;;;5009742;28;93783;-73
2022/04/21 09:31:58;;;;;;;3.85;2.90;;;;;;;;;;5006636;28;92286;-76
2022/04/21 09:34:32;;;;;;;4.17;3.33;;;;;;;;;;5008378;28;92826;-78
2022/04/21 09:37:00;;;;;;;3.05;2.85;;;;;;;;;;5006231;28;92543;-79
2022/04/21 09:39:29;;;;;;;3.78;3.30;;;;;;;;;;4989351;28;94265;-74
2022/04/21 09:41:56;;;;;;;3.30;3.08;;;;;;;;;;5003231;28;92964;-76
2022/04/21 09:47:32;;;;;;;3.20;3.00;;;;;;;;;;5001813;28;95208;-75
2022/04/21 09:50:09;;;;;;;3.42;3.20;;;;;;;;;;5001846;28;93518;-75
2022/04/21 09:52:48;;;;;;;4.10;3.70;;;;;;;;;;5005817;28;92427;-74
2022/04/21 09:55:27;;;;;;;4.65;3.70;;;;;;;;;;5010955;28;92384;-76
2022/04/21 09:58:05;;;;;;;3.53;3.22;;;;;;;;;;5009740;28;92869;-76
2022/04/21 10:00:31;;;;;;;5.57;3.42;;;;;;;;;;5001558;28;93934;-77
2022/04/21 10:02:59;;;;;;;4.70;3.20;;;;;;;;;;5000574;28;92325;-76
2022/04/21 10:05:26;;;;;;;4.07;3.22;;;;;;;;;;5008892;28;92822;-76
2022/04/21 10:07:53;;;;;;;5.80;3.08;;;;;;;;;;5006373;28;93941;-81
2022/04/21 10:10:26;;;;;;;2.70;2.50;;;;;;;;;;5006498;28;93383;-73
2022/04/21 10:12:55;;;;;;;3.22;3.03;;;;;;;;;;5006630;28;95240;-73
2022/04/21 10:15:23;;;;;;;4.68;2.72;;;;;;;;;;5005672;28;96227;-77
2022/04/21 10:17:50;;;;;;;7.10;3.13;;;;;;;;;;5020758;28;93892;-79
2022/04/21 10:20:17;;;;;;;8.32;3.13;;;;;;;;;;5016152;28;92931;-78
2022/04/21 10:23:10;;;;;;;4.90;3.10;;;;;;;;;;4986440;28;93363;-80
2022/04/21 10:25:45;;;;;;;3.15;2.90;;;;;;;;;;4986188;28;92525;-81
2022/04/21 10:28:38;;;;;;;3.05;2.78;;;;;;;;;;4981676;28;97248;-80
2022/04/21 10:31:24;;;;;;;4.55;3.30;;;;;;;;;;4979566;28;94485;-80
2022/04/21 10:33:58;;;;;;;3.30;2.75;;;;;;;;;;4963752;28;92716;-80
2022/04/21 10:36:47;;;;;;;3.90;3.15;;;;;;;;;;4983684;28;92716;-80
2022/04/21 10:39:30;;;;;;;4.85;2.97;;;;;;;;;;4966844;28;97446;-80
2022/04/21 10:42:06;;;;;;;4.83;3.07;;;;;;;;;;4988303;28;92295;-76
2022/04/21 10:44:39;;;;;;;4.68;3.60;;;;;;;;;;4988127;28;93996;-77
2022/04/21 10:47:25;;;;;;;4.22;3.40;;;;;;;;;;4982639;28;93465;-75
2022/04/21 10:49:52;;;;;;;7.53;3.08;;;;;;;;;;4978465;28;93393;-74
2022/04/21 10:57:46;;;;;;;3.47;3.25;;;;;;;;;;4976194;28;93552;-75
2022/04/21 11:00:33;;;;;;;3.60;2.88;;;;;;;;;;4984006;28;92961;-75
2022/04/21 11:03:03;;;;;;;3.40;3.13;;;;;;;;;;4977892;28;92304;-75
2022/04/21 11:05:52;;;;;;;3.83;3.55;;;;;;;;;;4995871;28;94791;-75
2022/04/21 11:08:19;;;;;;;5.15;3.40;;;;;;;;;;4996032;28;92359;-75
2022/04/21 11:10:46;;;;;;;4.35;3.53;;;;;;;;;;4997856;28;92291;-75
2022/04/21 11:13:14;;;;;;;6.93;3.67;;;;;;;;;;4979967;28;93162;-75
2022/04/21 11:15:44;;;;;;;3.65;3.35;;;;;;;;;;4997587;28;92360;-75
2022/04/21 11:18:11;;;;;;;4.18;3.35;;;;;;;;;;4997701;28;93298;-74
2022/04/21 11:20:42;;;;;;;7.50;3.17;;;;;;;;;;4997012;28;93585;-75
2022/04/21 11:23:24;;;;;;;3.78;3.58;;;;;;;;;;4997973;28;91660;-75
2022/04/21 11:25:51;;;;;;;5.18;3.40;;;;;;;;;;4997454;28;92421;-75
2022/04/21 11:28:24;;;;;;;3.33;3.05;;;;;;;;;;5000225;28;93236;-75
2022/04/21 11:30:55;;;;;;;3.28;3.00;;;;;;;;;;4995951;28;94853;-74
2022/04/21 11:33:22;;;;;;;4.35;2.97;;;;;;;;;;4979294;28;94810;-76
2022/04/21 11:35:48;;;;;;;6.18;3.47;;;;;;;;;;4997428;28;92275;-74
2022/04/21 11:38:14;;;;;;;6.70;3.35;;;;;;;;;;4997228;28;92849;-74
2022/04/21 11:40:41;;;;;;;7.40;2.83;;;;;;;;;;4979516;28;93347;-76
2022/04/21 11:43:14;;;;;;;7.10;3.45;;;;;;;;;;4997178;28;92364;-74
2022/04/21 11:45:44;;;;;;;5.65;3.50;;;;;;;;;;4996896;28;93554;-74
2022/04/21 11:48:12;;;;;;;4.80;3.45;;;;;;;;;;4996383;28;93425;-74
2022/04/21 11:50:42;;;;;;;5.57;3.53;;;;;;;;;;5000396;28;92325;-74
2022/04/21 11:53:14;;;;;;;3.47;3.20;;;;;;;;;;4997032;28;92899;-75
2022/04/21 11:55:41;;;;;;;3.13;2.92;;;;;;;;;;4995115;28;94687;-73
2022/04/21 11:58:11;;;;;;;5.40;3.00;;;;;;;;;;4995807;28;96499;-74
2022/04/21 12:08:53;;;;;;;3.28;3.08;;;;;;;;;;4996585;28;94417;-74
2022/04/21 12:11:21;;;;;;;8.02;3.13;;;;;;;;;;5000005;28;92297;-74
2022/04/21 12:13:48;;;;;;;6.93;2.92;;;;;;;;;;4995554;28;93485;-75
2022/04/21 12:16:34;;;;;;;2.97;2.78;;;;;;;;;;4994623;28;92647;-73
2022/04/21 12:19:20;;;;;;;3.45;3.00;;;;;;;;;;4996506;28;92642;-73
2022/04/21 12:21:57;;;;;;;4.50;3.17;;;;;;;;;;4995182;28;95934;-75
2022/04/21 12:24:42;;;;;;;3.25;2.78;;;;;;;;;;4979381;28;92819;-75
2022/04/21 12:27:12;;;;;;;3.50;2.75;;;;;;;;;;4999878;28;92759;-78
2022/04/21 12:29:51;;;;;;;2.75;2.55;;;;;;;;;;5000193;28;93566;-75
2022/04/21 12:32:23;;;;;;;2.97;2.78;;;;;;;;;;4980391;28;93150;-75
2022/04/21 12:34:49;;;;;;;2.67;2.47;;;;;;;;;;4999680;28;93948;-75
2022/04/21 12:37:23;;;;;;;4.70;2.42;;;;;;;;;;4996570;28;92226;-75
2022/04/21 12:39:49;;;;;;;2.90;2.70;;;;;;;;;;4988710;28;93413;-75
2022/04/21 12:42:40;;;;;;;8.02;2.80;;;;;;;;;;4996487;28;92896;-75
2022/04/21 12:45:09;;;;;;;2.75;2.55;;;;;;;;;;5016551;28;92372;-76
2022/04/21 12:47:43;;;;;;;4.40;2.45;;;;;;;;;;5014826;28;94774;-74
2022/04/21 12:50:16;;;;;;;2.75;2.45;;;;;;;;;;5016273;28;93624;-75
2022/04/21 12:52:46;;;;;;;8.75;2.53;;;;;;;;;;5016505;28;92392;-75
2022/04/21 12:55:22;;;;;;;4.28;2.35;;;;;;;;;;5016462;28;93405;-76
2022/04/21 12:58:09;;;;;;;4.40;2.47;;;;;;;;;;5019449;28;93469;-74
2022/04/21 13:00:37;;;;;;;5.75;3.00;;;;;;;;;;5016100;28;94315;-75
2022/04/21 13:03:05;;;;;;;3.97;2.90;;;;;;;;;;5015969;28;93736;-75
2022/04/21 13:05:32;;;;;;;4.47;2.90;;;;;;;;;;5016608;28;91621;-75
2022/04/21 13:07:58;;;;;;;2.95;2.75;;;;;;;;;;5001687;28;93877;-75
2022/04/21 13:10:26;;;;;;;6.57;2.90;;;;;;;;;;5005534;28;94962;-75
2022/04/21 13:12:52;;;;;;;3.75;3.40;;;;;;;;;;5003315;28;94705;-75
2022/04/21 13:15:19;;;;;;;5.70;2.95;;;;;;;;;;5004750;28;96971;-74
2022/04/21 13:17:45;;;;;;;5.10;3.55;;;;;;;;;;5002669;28;94452;-75
2022/04/21 13:21:52;;;;;;;8.23;2.78;;;;;;;;;;5008577;28;92178;-76
2022/04/21 13:23:04;;;;;;;3.83;2.92;;;;;;;;;;5003232;28;95009;-75
2022/04/21 13:25:34;;;;;;;4.25;3.80;;;;;;;;;;5002043;28;92317;-76
2022/04/21 13:28:00;;;;;;;9.18;3.60;;;;;;;;;;5008606;28;93703;-76
2022/04/21 13:30:28;;;;;;;7.60;4.00;;;;;;;;;;5008592;28;93163;-75
2022/04/21 13:35:43;;;;;;;3.92;3.55;;;;;;;;;;5004209;28;93410;-75
2022/04/21 13:38:09;;;;;;;4.10;3.70;;;;;;;;;;5006952;28;96129;-76
2022/04/21 13:40:37;;;;;;;4.13;3.83;;;;;;;;;;5007206;28;92417;-76
2022/04/21 13:43:04;;;;;;;4.70;4.20;;;;;;;;;;5012652;28;93103;-71
2022/04/21 13:45:50;;;;;;;14.43;3.88;;;;;;;;;;4985603;28;92467;-70
2022/04/21 13:48:17;;;;;;;4.18;3.88;;;;;;;;;;5006757;28;93608;-71
2022/04/21 13:50:43;;;;;;;4.30;3.88;;;;;;;;;;5009735;28;94093;-72
2022/04/21 13:53:09;;;;;;;5.53;4.18;;;;;;;;;;5006578;28;92894;-73
2022/04/21 13:55:36;;;;;;;5.15;4.00;;;;;;;;;;5009583;28;92728;-72
2022/04/21 13:58:02;;;;;;;4.68;4.03;;;;;;;;;;5007543;28;92820;-71
2022/04/21 14:00:29;;;;;;;7.80;4.40;;;;;;;;;;5007869;28;92253;-71
2022/04/21 14:02:55;;;;;;;6.65;4.90;;;;;;;;;;5007507;28;95100;-71
2022/04/21 14:05:22;;;;;;;10.05;4.20;;;;;;;;;;5009104;28;93241;-71
2022/04/21 14:07:49;;;;;;;10.10;4.85;;;;;;;;;;5009715;28;93349;-72
2022/04/21 14:10:15;;;;;;;4.60;4.10;;;;;;;;;;5006379;28;93683;-70
2022/04/21 14:12:41;;;;;;;8.68;4.65;;;;;;;;;;5009309;28;93667;-72
2022/04/21 14:15:08;;;;;;;11.13;4.70;;;;;;;;;;5007848;28;92905;-76
2022/04/21 14:17:34;;;;;;;6.80;4.68;;;;;;;;;;4985285;28;94126;-75
2022/04/21 14:20:01;;;;;;;8.80;4.78;;;;;;;;;;5008486;28;91709;-75
2022/04/21 14:22:33;;;;;;;5.70;4.63;;;;;;;;;;5006573;28;92471;-77
2022/04/21 14:25:02;;;;;;;5.20;4.80;;;;;;;;;;5008636;28;93221;-73
2022/04/21 14:27:28;;;;;;;5.18;4.68;;;;;;;;;;5003782;28;94885;-75
2022/04/21 14:29:55;;;;;;;4.88;4.25;;;;;;;;;;5006740;28;93466;-75
2022/04/21 14:32:21;;;;;;;7.28;4.65;;;;;;;;;;5006075;28;92367;-75
2022/04/21 14:34:51;;;;;;;5.75;4.70;;;;;;;;;;5009333;28;93658;-77
2022/04/21 14:44:04;;;;;;;8.55;5.03;;;;;;;;;;5010725;28;93911;-75
2022/04/21 14:45:38;;;;;;;10.00;4.30;;;;;;;;;;5004004;28;93219;-73
2022/04/21 14:48:04;;;;;;;4.65;3.80;;;;;;;;;;5007238;28;93405;-73
2022/04/21 14:50:31;;;;;;;6.38;4.07;;;;;;;;;;5008394;28;93427;-76
2022/04/21 14:52:57;;;;;;;5.78;4.60;;;;;;;;;;5004269;28;94864;-75
2022/04/21 14:55:24;;;;;;;4.90;4.55;;;;;;;;;;5008232;28;95367;-75
2022/04/21 14:57:50;;;;;;;4.93;4.50;;;;;;;;;;5006777;28;93392;-75
2022/04/21 15:00:17;;;;;;;6.60;4.30;;;;;;;;;;5006677;28;92273;-75
2022/04/21 15:02:43;;;;;;;4.93;4.18;;;;;;;;;;5008398;28;93089;-75
2022/04/21 15:05:10;;;;;;;5.47;4.30;;;;;;;;;;5005150;28;94114;-73
2022/04/21 15:07:36;;;;;;;4.40;4.00;;;;;;;;;;5008812;28;92215;-74
2022/04/21 15:10:04;;;;;;;12.02;4.90;;;;;;;;;;5009083;28;92480;-76
2022/04/21 15:12:31;;;;;;;8.20;4.63;;;;;;;;;;5004185;28;93226;-74
2022/04/21 15:14:57;;;;;;;4.45;3.80;;;;;;;;;;5006528;28;93121;-76
2022/04/21 15:17:23;;;;;;;7.25;4.72;;;;;;;;;;4984709;28;96930;-75
2022/04/21 15:20:11;;;;;;;9.02;4.85;;;;;;;;;;5001875;28;92270;-75
2022/04/21 15:22:37;;;;;;;11.27;3.90;;;;;;;;;;5009310;28;92688;-75
2022/04/21 15:25:04;;;;;;;8.43;4.05;;;;;;;;;;5007064;28;93725;-75
2022/04/21 15:27:31;;;;;;;5.45;4.20;;;;;;;;;;5002695;28;92338;-76
2022/04/21 15:29:57;;;;;;;13.48;4.60;;;;;;;;;;4981216;28;92424;-75
2022/04/21 15:32:23;;;;;;;6.50;4.30;;;;;;;;;;5010492;28;93231;-76
2022/04/21 15:34:50;;;;;;;8.60;4.20;;;;;;;;;;5006056;28;93324;-77
2022/04/21 15:37:16;;;;;;;4.57;3.72;;;;;;;;;;5005223;28;93611;-74
2022/04/21 15:39:45;;;;;;;9.95;3.80;;;;;;;;;;5004802;28;93424;-75
2022/04/21 15:42:11;;;;;;;6.43;3.63;;;;;;;;;;5006508;28;94924;-75
2022/04/21 15:44:37;;;;;;;4.15;3.60;;;;;;;;;;5005648;28;93749;-75